createdAt,value
2018-03-17T02:40:06.444Z,0
2018-03-17T05:01:42.076Z,3
2018-03-17T05:07:42.349Z,7
2018-03-17T05:10:12.429Z,10
2018-03-17T05:12:12.564Z,13
2018-03-17T05:13:42.545Z,17
2018-03-17T05:15:12.871Z,20
2018-03-17T05:16:12.658Z,23
2018-03-17T05:17:12.775Z,27
2018-03-17T05:18:12.772Z,30
2018-03-17T05:19:12.847Z,33
2018-03-17T05:19:42.818Z,37
2018-03-17T05:20:12.902Z,40
2018-03-17T05:21:12.926Z,43
2018-03-17T05:21:42.913Z,47
2018-03-17T05:22:12.936Z,50
2018-03-17T05:22:42.966Z,53
2018-03-17T05:23:12.970Z,57
2018-03-17T05:23:42.984Z,60
2018-03-17T05:24:13.038Z,63
2018-03-17T05:24:43.013Z,70
2018-03-17T05:25:13.054Z,73
2018-03-17T05:25:43.058Z,80
2018-03-17T05:26:13.093Z,83
2018-03-17T05:26:43.132Z,90
2018-03-17T05:27:13.181Z,93
2018-03-17T05:27:43.191Z,100
2018-03-17T05:28:13.193Z,103
2018-03-17T05:28:43.175Z,107
2018-03-17T05:29:13.213Z,110
2018-03-17T05:29:43.215Z,117
2018-03-17T05:30:13.521Z,120
2018-03-17T05:30:43.250Z,123
2018-03-17T05:31:13.374Z,130
2018-03-17T05:31:43.378Z,133
2018-03-17T05:32:13.404Z,140
2018-03-17T05:32:43.337Z,143
2018-03-17T05:33:13.425Z,150
2018-03-17T05:33:43.429Z,157
2018-03-17T05:34:13.473Z,163
2018-03-17T05:34:43.480Z,170
2018-03-17T05:35:13.577Z,177
2018-03-17T05:35:43.514Z,183
2018-03-17T05:36:13.603Z,190
2018-03-17T05:36:43.620Z,197
2018-03-17T05:37:13.634Z,207
2018-03-17T05:37:43.686Z,213
2018-03-17T05:38:13.662Z,220
2018-03-17T05:38:43.690Z,227
2018-03-17T05:39:13.748Z,233
2018-03-17T05:39:43.732Z,243
2018-03-17T05:40:13.795Z,250
2018-03-17T05:40:43.741Z,260
2018-03-17T05:41:13.816Z,267
2018-03-17T05:41:43.792Z,277
2018-03-17T05:42:13.849Z,287
2018-03-17T05:42:43.843Z,297
2018-03-17T05:43:13.873Z,307
2018-03-17T05:43:43.926Z,317
2018-03-17T05:44:13.924Z,327
2018-03-17T05:44:43.900Z,337
2018-03-17T05:45:13.940Z,350
2018-03-17T05:45:43.966Z,357
2018-03-17T05:46:14.025Z,367
2018-03-17T05:46:43.959Z,377
2018-03-17T05:47:14.039Z,387
2018-03-17T05:47:44.043Z,397
2018-03-17T05:48:14.009Z,407
2018-03-17T05:48:44.157Z,420
2018-03-17T05:49:14.108Z,430
2018-03-17T05:49:44.092Z,440
2018-03-17T05:50:14.175Z,453
2018-03-17T05:50:44.131Z,467
2018-03-17T05:51:14.247Z,477
2018-03-17T05:51:44.224Z,490
2018-03-17T05:52:14.317Z,503
2018-03-17T05:52:44.234Z,517
2018-03-17T05:53:14.291Z,527
2018-03-17T05:53:44.337Z,540
2018-03-17T05:54:14.319Z,553
2018-03-17T05:54:44.303Z,563
2018-03-17T05:55:14.350Z,577
2018-03-17T05:55:44.393Z,590
2018-03-17T05:56:14.419Z,603
2018-03-17T05:56:44.431Z,617
2018-03-17T05:57:14.425Z,633
2018-03-17T05:57:44.504Z,643
2018-03-17T05:58:14.498Z,660
2018-03-17T05:58:44.559Z,680
2018-03-17T05:59:14.526Z,697
2018-03-17T05:59:44.483Z,713
2018-03-17T06:00:14.574Z,733
2018-03-17T06:00:44.531Z,753
2018-03-17T06:01:14.622Z,777
2018-03-17T06:01:44.575Z,797
2018-03-17T06:02:14.646Z,817
2018-03-17T06:02:44.628Z,840
2018-03-17T06:03:14.662Z,857
2018-03-17T06:03:44.726Z,880
2018-03-17T06:04:14.731Z,900
2018-03-17T06:04:44.714Z,923
2018-03-17T06:05:14.792Z,943
2018-03-17T06:05:44.747Z,967
2018-03-17T06:06:14.801Z,987
2018-03-17T06:06:45.608Z,1010
2018-03-17T06:07:14.792Z,1030
2018-03-17T06:07:44.820Z,1053
2018-03-17T06:08:14.872Z,1070
2018-03-17T06:08:44.920Z,1090
2018-03-17T06:09:15.023Z,1110
2018-03-17T06:09:44.891Z,1127
2018-03-17T06:10:14.932Z,1143
2018-03-17T06:10:44.941Z,1160
2018-03-17T06:11:14.967Z,1177
2018-03-17T06:11:44.982Z,1193
2018-03-17T06:12:15.002Z,1210
2018-03-17T06:12:45.073Z,1230
2018-03-17T06:13:15.032Z,1250
2018-03-17T06:13:45.066Z,1270
2018-03-17T06:14:15.121Z,1280
2018-03-17T06:14:45.107Z,1310
2018-03-17T06:15:15.158Z,1337
2018-03-17T06:15:45.140Z,1363
2018-03-17T06:16:15.494Z,1390
2018-03-17T06:16:45.247Z,1413
2018-03-17T06:17:15.200Z,1440
2018-03-17T06:17:45.243Z,1463
2018-03-17T06:18:15.278Z,1490
2018-03-17T06:18:45.285Z,1517
2018-03-17T06:19:15.390Z,1547
2018-03-17T06:19:45.398Z,1573
2018-03-17T06:20:15.404Z,1600
2018-03-17T06:20:45.371Z,1627
2018-03-17T06:21:15.397Z,1657
2018-03-17T06:21:45.459Z,1680
2018-03-17T06:22:15.452Z,1707
2018-03-17T06:22:45.457Z,1733
2018-03-17T06:23:15.468Z,1763
2018-03-17T06:23:45.523Z,1797
2018-03-17T06:24:15.518Z,1833
2018-03-17T06:24:45.560Z,1863
2018-03-17T06:25:15.593Z,1897
2018-03-17T06:25:45.616Z,1923
2018-03-17T06:26:15.697Z,1953
2018-03-17T06:26:45.682Z,1993
2018-03-17T06:27:15.722Z,2027
2018-03-17T06:27:45.810Z,2053
2018-03-17T06:28:15.796Z,2080
2018-03-17T06:28:45.785Z,2107
2018-03-17T06:29:15.790Z,2133
2018-03-17T06:29:45.810Z,2150
2018-03-17T06:30:15.816Z,2177
2018-03-17T06:30:45.904Z,2200
2018-03-17T06:31:15.869Z,2223
2018-03-17T06:31:45.879Z,2263
2018-03-17T06:32:16.071Z,2290
2018-03-17T06:32:46.107Z,2330
2018-03-17T06:33:17.080Z,2370
2018-03-17T06:33:47.133Z,2417
2018-03-17T06:34:18.057Z,2453
2018-03-17T06:34:48.104Z,2503
2018-03-17T06:35:19.046Z,2550
2018-03-17T06:35:49.071Z,2593
2018-03-17T06:36:19.082Z,2643
2018-03-17T06:36:49.156Z,2697
2018-03-17T06:37:19.192Z,2753
2018-03-17T06:37:49.677Z,2817
2018-03-17T06:38:19.252Z,2883
2018-03-17T06:38:49.247Z,2943
2018-03-17T06:39:19.256Z,3010
2018-03-17T06:39:49.269Z,3073
2018-03-17T06:40:19.365Z,3150
2018-03-17T06:40:49.403Z,3227
2018-03-17T06:41:19.366Z,3303
2018-03-17T06:41:49.345Z,3387
2018-03-17T06:42:19.402Z,3463
2018-03-17T06:42:49.436Z,3547
2018-03-17T06:43:19.454Z,3630
2018-03-17T06:43:49.471Z,3720
2018-03-17T06:44:19.488Z,3807
2018-03-17T06:44:49.463Z,3887
2018-03-17T06:45:19.531Z,3973
2018-03-17T06:45:49.614Z,4060
2018-03-17T06:46:19.579Z,4140
2018-03-17T06:46:49.608Z,4227
2018-03-17T06:47:19.649Z,4297
2018-03-17T06:47:50.145Z,4380
2018-03-17T06:48:19.607Z,4440
2018-03-17T06:48:49.688Z,4510
2018-03-17T06:49:19.652Z,4593
2018-03-17T06:49:49.706Z,4663
2018-03-17T06:50:19.737Z,4720
2018-03-17T06:50:49.763Z,4793
2018-03-17T06:51:19.792Z,4867
2018-03-17T06:51:49.787Z,4907
2018-03-17T06:52:19.825Z,4947
2018-03-17T06:52:49.841Z,4983
2018-03-17T06:53:19.885Z,5023
2018-03-17T06:53:49.878Z,5060
2018-03-17T06:54:19.869Z,5093
2018-03-17T06:54:49.944Z,5137
2018-03-17T06:55:19.928Z,5197
2018-03-17T06:55:50.204Z,5247
2018-03-17T06:56:19.954Z,5297
2018-03-17T06:56:49.972Z,5343
2018-03-17T06:57:20.020Z,5403
2018-03-17T06:57:50.118Z,5457
2018-03-17T06:58:20.079Z,5510
2018-03-17T06:58:50.048Z,5577
2018-03-17T06:59:20.478Z,5630
2018-03-17T06:59:50.106Z,5677
2018-03-17T07:00:20.117Z,5717
2018-03-17T07:00:50.143Z,5727
2018-03-17T07:01:20.146Z,5703
2018-03-17T07:01:50.139Z,5677
2018-03-17T07:02:20.193Z,5670
2018-03-17T07:02:50.211Z,5687
2018-03-17T07:03:20.331Z,5747
2018-03-17T07:03:50.292Z,5840
2018-03-17T07:04:20.321Z,5967
2018-03-17T07:04:50.295Z,6123
2018-03-17T07:05:20.334Z,6327
2018-03-17T07:05:55.843Z,6497
2018-03-17T07:06:20.306Z,6610
2018-03-17T07:06:50.364Z,6750
2018-03-17T07:07:20.392Z,6840
2018-03-17T07:07:50.438Z,6863
2018-03-17T07:08:20.443Z,6887
2018-03-17T07:08:50.447Z,6890
2018-03-17T07:09:20.469Z,6913
2018-03-17T07:09:50.477Z,6947
2018-03-17T07:10:20.514Z,6960
2018-03-17T07:10:50.521Z,7003
2018-03-17T07:11:20.550Z,6960
2018-03-17T07:11:50.560Z,6947
2018-03-17T07:12:20.670Z,6883
2018-03-17T07:12:50.681Z,6853
2018-03-17T07:13:20.659Z,6810
2018-03-17T07:14:20.701Z,6743
2018-03-17T07:14:50.734Z,6603
2018-03-17T07:15:20.760Z,6407
2018-03-17T07:15:50.755Z,6187
2018-03-17T07:16:20.833Z,6063
2018-03-17T07:16:50.806Z,5933
2018-03-17T07:17:20.819Z,5797
2018-03-17T07:17:50.855Z,5530
2018-03-17T07:18:20.871Z,5333
2018-03-17T07:18:50.863Z,5140
2018-03-17T07:19:20.916Z,5050
2018-03-17T07:19:50.907Z,4980
2018-03-17T07:20:20.960Z,4920
2018-03-17T07:20:50.965Z,4930
2018-03-17T07:21:21.011Z,5013
2018-03-17T07:21:51.032Z,5097
2018-03-17T07:22:21.054Z,5203
2018-03-17T07:22:51.050Z,5297
2018-03-17T07:23:21.125Z,5310
2018-03-17T07:23:51.117Z,5323
2018-03-17T07:24:21.155Z,5257
2018-03-17T07:24:51.188Z,5217
2018-03-17T07:25:21.299Z,5093
2018-03-17T07:25:51.249Z,5083
2018-03-17T07:26:21.210Z,5097
2018-03-17T07:26:51.226Z,5130
2018-03-17T07:27:21.278Z,5187
2018-03-17T07:27:51.317Z,5253
2018-03-17T07:28:21.336Z,5300
2018-03-17T07:28:51.305Z,5357
2018-03-17T07:29:21.327Z,5427
2018-03-17T07:29:51.377Z,5487
2018-03-17T07:30:21.392Z,5550
2018-03-17T07:30:51.411Z,5620
2018-03-17T07:31:21.479Z,5663
2018-03-17T07:31:51.416Z,5703
2018-03-17T07:32:21.533Z,5777
2018-03-17T07:32:51.461Z,5867
2018-03-17T07:33:21.460Z,5957
2018-03-17T07:33:51.493Z,6033
2018-03-17T07:34:21.496Z,6147
2018-03-17T07:34:51.522Z,6253
2018-03-17T07:35:21.559Z,6333
2018-03-17T07:35:51.567Z,6410
2018-03-17T07:36:21.580Z,6560
2018-03-17T07:36:51.620Z,6640
2018-03-17T07:37:21.676Z,6690
2018-03-17T07:37:51.644Z,6717
2018-03-17T07:38:21.666Z,6723
2018-03-17T07:38:51.698Z,6767
2018-03-17T07:39:21.760Z,6813
2018-03-17T07:39:51.714Z,6827
2018-03-17T07:40:51.821Z,6800
2018-03-17T07:41:21.781Z,6850
2018-03-17T07:41:51.808Z,6830
2018-03-17T07:42:51.852Z,6900
2018-03-17T07:43:51.894Z,6920
2018-03-17T07:44:22.150Z,7000
2018-03-17T07:44:51.931Z,6997
2018-03-17T07:45:22.008Z,7037
2018-03-17T07:45:51.987Z,7060
2018-03-17T07:46:22.015Z,7037
2018-03-17T07:46:51.996Z,7060
2018-03-17T07:47:22.026Z,7103
2018-03-17T07:47:52.060Z,7107
2018-03-17T07:48:22.069Z,7093
2018-03-17T07:48:52.109Z,7063
2018-03-17T07:49:22.111Z,7057
2018-03-17T07:49:52.116Z,7023
2018-03-17T07:50:22.213Z,6990
2018-03-17T07:50:52.241Z,6980
2018-03-17T07:51:22.270Z,6987
2018-03-17T07:51:52.269Z,7027
2018-03-17T07:52:22.307Z,7087
2018-03-17T07:52:52.340Z,7120
2018-03-17T07:53:22.331Z,7150
2018-03-17T07:53:52.379Z,7220
2018-03-17T07:54:22.361Z,7293
2018-03-17T07:54:52.361Z,7350
2018-03-17T07:55:22.503Z,7437
2018-03-17T07:55:52.461Z,7550
2018-03-17T07:56:22.517Z,7670
2018-03-17T07:56:52.496Z,7693
2018-03-17T07:57:22.566Z,7773
2018-03-17T07:57:52.554Z,7813
2018-03-17T07:58:22.637Z,7883
2018-03-17T07:58:52.673Z,8010
2018-03-17T07:59:22.690Z,8217
2018-03-17T07:59:52.731Z,8283
2018-03-17T08:00:22.760Z,8280
2018-03-17T08:00:52.807Z,8360
2018-03-17T08:01:22.797Z,8647
2018-03-17T08:01:52.846Z,8877
2018-03-17T08:02:22.831Z,9240
2018-03-17T08:02:52.884Z,9447
2018-03-17T08:03:22.933Z,9727
2018-03-17T08:03:52.951Z,10180
2018-03-17T08:04:22.990Z,10817
2018-03-17T08:04:53.033Z,11140
2018-03-17T08:05:23.051Z,11327
2018-03-17T08:05:53.079Z,11880
2018-03-17T08:06:23.134Z,11700
2018-03-17T08:06:53.122Z,12980
2018-03-17T08:07:23.136Z,12243
2018-03-17T08:07:53.120Z,12950
2018-03-17T08:08:23.226Z,13967
2018-03-17T08:08:53.279Z,13477
2018-03-17T08:09:23.254Z,13403
2018-03-17T08:09:53.277Z,11890
2018-03-17T08:10:23.266Z,11827
2018-03-17T08:10:53.312Z,10897
2018-03-17T08:11:23.408Z,10090
2018-03-17T08:11:53.330Z,9027
2018-03-17T08:12:23.367Z,8467
2018-03-17T08:12:53.377Z,8293
2018-03-17T08:13:23.354Z,8177
2018-03-17T08:13:53.411Z,8213
2018-03-17T08:14:23.500Z,8240
2018-03-17T08:14:53.449Z,7927
2018-03-17T08:15:23.439Z,8337
2018-03-17T08:15:53.535Z,8720
2018-03-17T08:16:23.500Z,9427
2018-03-17T08:16:53.553Z,8420
2018-03-17T08:17:23.511Z,7703
2018-03-17T08:17:53.577Z,8147
2018-03-17T08:18:23.616Z,8573
2018-03-17T08:18:53.562Z,9003
2018-03-17T08:19:23.622Z,9467
2018-03-17T08:19:53.602Z,9490
2018-03-17T08:20:23.654Z,9423
2018-03-17T08:20:53.719Z,9267
2018-03-17T08:21:23.741Z,9080
2018-03-17T08:21:53.753Z,8993
2018-03-17T08:22:23.750Z,8903
2018-03-17T08:22:53.757Z,8317
2018-03-17T08:23:23.766Z,8073
2018-03-17T08:23:53.806Z,8007
2018-03-17T08:24:23.813Z,7917
2018-03-17T08:24:53.832Z,7647
2018-03-17T08:25:23.853Z,7587
2018-03-17T08:25:53.903Z,7477
2018-03-17T08:26:23.917Z,7457
2018-03-17T08:26:53.925Z,7280
2018-03-17T08:27:23.940Z,7303
2018-03-17T08:27:53.949Z,7400
2018-03-17T08:28:23.971Z,7563
2018-03-17T08:28:54.007Z,7570
2018-03-17T08:29:24.045Z,7560
2018-03-17T08:29:54.058Z,7587
2018-03-17T08:30:24.054Z,7680
2018-03-17T08:30:54.089Z,7757
2018-03-17T08:31:24.132Z,7743
2018-03-17T08:31:54.112Z,7720
2018-03-17T08:32:24.209Z,7730
2018-03-17T08:32:54.184Z,7763
2018-03-17T08:33:24.199Z,7833
2018-03-17T08:33:54.199Z,7903
2018-03-17T08:34:24.285Z,8050
2018-03-17T08:34:54.241Z,8203
2018-03-17T08:35:24.284Z,8213
2018-03-17T08:35:54.932Z,8303
2018-03-17T08:36:24.403Z,8427
2018-03-17T08:36:54.332Z,8613
2018-03-17T08:37:24.388Z,8843
2018-03-17T08:37:54.382Z,9150
2018-03-17T08:38:24.436Z,9500
2018-03-17T08:38:54.470Z,9833
2018-03-17T08:39:24.514Z,10130
2018-03-17T08:39:54.469Z,10377
2018-03-17T08:40:24.513Z,10600
2018-03-17T08:40:54.530Z,10757
2018-03-17T08:41:24.570Z,10797
2018-03-17T08:41:54.593Z,10707
2018-03-17T08:42:24.577Z,10607
2018-03-17T08:42:54.570Z,10480
2018-03-17T08:43:24.620Z,10343
2018-03-17T08:43:54.603Z,10177
2018-03-17T08:44:24.698Z,10080
2018-03-17T08:44:54.636Z,10010
2018-03-17T08:45:24.697Z,9943
2018-03-17T08:45:54.774Z,9920
2018-03-17T08:46:24.808Z,9933
2018-03-17T08:46:54.807Z,9953
2018-03-17T08:47:24.844Z,9973
2018-03-17T08:47:54.799Z,10017
2018-03-17T08:48:24.817Z,10080
2018-03-17T08:48:54.835Z,10163
2018-03-17T08:49:24.875Z,10313
2018-03-17T08:49:54.872Z,10533
2018-03-17T08:50:24.919Z,10790
2018-03-17T08:50:54.933Z,11043
2018-03-17T08:51:24.965Z,11317
2018-03-17T08:51:54.955Z,11590
2018-03-17T08:52:24.987Z,11853
2018-03-17T08:52:54.994Z,12103
2018-03-17T08:53:25.059Z,12350
2018-03-17T08:53:55.036Z,12640
2018-03-17T08:54:25.074Z,13080
2018-03-17T08:54:55.098Z,13263
2018-03-17T08:55:25.108Z,13543
2018-03-17T08:55:55.177Z,13790
2018-03-17T08:56:25.249Z,14117
2018-03-17T08:56:55.172Z,14507
2018-03-17T08:57:25.208Z,14820
2018-03-17T08:57:55.262Z,15257
2018-03-17T08:58:25.264Z,15453
2018-03-17T08:58:55.347Z,15607
2018-03-17T08:59:25.343Z,15817
2018-03-17T08:59:55.348Z,16060
2018-03-17T09:00:25.336Z,16303
2018-03-17T09:00:55.378Z,16453
2018-03-17T09:01:25.437Z,15610
2018-03-17T09:01:55.427Z,15203
2018-03-17T09:02:25.428Z,14970
2018-03-17T09:02:55.415Z,14737
2018-03-17T09:03:25.534Z,14590
2018-03-17T09:03:55.462Z,14563
2018-03-17T09:04:25.584Z,14657
2018-03-17T09:04:55.608Z,14977
2018-03-17T09:05:25.609Z,15283
2018-03-17T09:05:55.600Z,15527
2018-03-17T09:06:25.637Z,15830
2018-03-17T09:06:55.677Z,15870
2018-03-17T09:07:25.705Z,15930
2018-03-17T09:07:55.686Z,16013
2018-03-17T09:08:25.684Z,16377
2018-03-17T09:08:55.733Z,16653
2018-03-17T09:09:26.059Z,16387
2018-03-17T09:09:55.783Z,16207
2018-03-17T09:10:25.813Z,15987
2018-03-17T09:10:55.794Z,15537
2018-03-17T09:11:25.806Z,15193
2018-03-17T09:11:55.898Z,14873
2018-03-17T09:12:25.937Z,14533
2018-03-17T09:12:55.891Z,14420
2018-03-17T09:13:25.909Z,14377
2018-03-17T09:13:55.948Z,14427
2018-03-17T09:14:25.995Z,14523
2018-03-17T09:14:55.968Z,14680
2018-03-17T09:15:25.997Z,14900
2018-03-17T09:15:56.008Z,15120
2018-03-17T09:16:26.042Z,15363
2018-03-17T09:16:56.073Z,15650
2018-03-17T09:17:26.144Z,15943
2018-03-17T09:17:56.101Z,16180
2018-03-17T09:18:26.107Z,16493
2018-03-17T09:18:56.154Z,16833
2018-03-17T09:19:26.159Z,17130
2018-03-17T09:19:56.229Z,17413
2018-03-17T09:20:26.243Z,17520
2018-03-17T09:20:56.222Z,17653
2018-03-17T09:21:26.230Z,17820
2018-03-17T09:21:56.214Z,17983
2018-03-17T09:22:26.367Z,18237
2018-03-17T09:22:56.354Z,18743
2018-03-17T09:23:26.414Z,18530
2018-03-17T09:23:56.445Z,18660
2018-03-17T09:24:26.441Z,18850
2018-03-17T09:24:56.440Z,19253
2018-03-17T09:25:26.472Z,19773
2018-03-17T09:25:56.458Z,20000
2018-03-17T09:26:26.502Z,20613
2018-03-17T09:26:56.524Z,20820
2018-03-17T09:27:26.573Z,21587
2018-03-17T09:27:56.602Z,20687
2018-03-17T09:28:26.541Z,21390
2018-03-17T09:28:56.605Z,20723
2018-03-17T09:29:26.619Z,20463
2018-03-17T09:29:56.853Z,20690
2018-03-17T09:30:26.722Z,21510
2018-03-17T09:30:56.652Z,21823
2018-03-17T09:31:26.690Z,24323
2018-03-17T09:31:56.771Z,24860
2018-03-17T09:32:26.736Z,22913
2018-03-17T09:32:56.820Z,24593
2018-03-17T09:33:26.776Z,24817
2018-03-17T09:33:56.794Z,23573
2018-03-17T09:34:26.789Z,23603
2018-03-17T09:34:56.827Z,22830
2018-03-17T09:35:26.832Z,21610
2018-03-17T09:35:56.857Z,20280
2018-03-17T09:36:26.889Z,20140
2018-03-17T09:36:56.895Z,21547
2018-03-17T09:39:39.755Z,22527
2018-03-17T09:40:09.787Z,22443
2018-03-17T09:40:40.776Z,22133
2018-03-17T09:41:10.783Z,21720
2018-03-17T09:41:41.770Z,21663
2018-03-17T09:42:11.821Z,22723
2018-03-17T09:42:42.759Z,24537
2018-03-17T09:43:12.933Z,26517
2018-03-17T09:43:43.806Z,27453
2018-03-17T09:44:13.811Z,27793
2018-03-17T09:44:44.774Z,27737
2018-03-17T09:45:14.792Z,26857
2018-03-17T09:45:45.734Z,29537
2018-03-17T09:46:15.789Z,29340
2018-03-17T09:46:46.778Z,33770
2018-03-17T09:47:16.788Z,41817
2018-03-17T09:47:47.724Z,44177
2018-03-17T09:48:17.761Z,41603
2018-03-17T09:48:48.739Z,39607
2018-03-17T09:49:18.754Z,41967
2018-03-17T09:49:49.743Z,40080
2018-03-17T09:50:19.787Z,42937
2018-03-17T09:50:50.719Z,42970
2018-03-17T09:51:20.776Z,42707
2018-03-17T09:51:51.711Z,42767
2018-03-17T09:52:21.758Z,42123
2018-03-17T09:52:52.736Z,41717
2018-03-17T09:53:22.770Z,40777
2018-03-17T09:53:53.685Z,40697
2018-03-17T09:54:23.740Z,41003
2018-03-17T09:54:54.697Z,39907
2018-03-17T09:55:24.738Z,39993
2018-03-17T09:55:55.736Z,39950
2018-03-17T09:56:25.763Z,40003
2018-03-17T09:56:56.703Z,39980
2018-03-17T09:57:26.710Z,39800
2018-03-17T09:57:57.704Z,38343
2018-03-17T09:58:27.754Z,36883
2018-03-17T09:58:58.729Z,36910
2018-03-17T09:59:28.780Z,36433
2018-03-17T09:59:58.872Z,35840
2018-03-17T10:00:28.862Z,35967
2018-03-17T10:00:58.876Z,35777
2018-03-17T10:01:28.880Z,36030
2018-03-17T10:01:58.944Z,33493
2018-03-17T10:02:29.015Z,31667
2018-03-17T10:02:58.974Z,33283
2018-03-17T10:03:29.000Z,35430
2018-03-17T10:03:59.068Z,34987
2018-03-17T10:04:29.112Z,35213
2018-03-17T10:04:59.154Z,34070
2018-03-17T10:05:29.140Z,31107
2018-03-17T10:05:59.196Z,26510
2018-03-17T10:06:29.184Z,24957
2018-03-17T10:06:59.237Z,27720
2018-03-17T10:07:29.259Z,28410
2018-03-17T10:07:59.244Z,27320
2018-03-17T10:08:29.287Z,24293
2018-03-17T10:08:59.354Z,27833
2018-03-17T10:09:29.379Z,19983
2018-03-17T10:09:59.464Z,18773
2018-03-17T10:10:29.416Z,20713
2018-03-17T10:10:59.472Z,19273
2018-03-17T10:11:29.468Z,18573
2018-03-17T10:11:59.486Z,18043
2018-03-17T10:12:29.615Z,18400
2018-03-17T10:12:59.553Z,18273
2018-03-17T10:13:29.654Z,20000
2018-03-17T10:13:59.625Z,19467
2018-03-17T10:14:29.676Z,18607
2018-03-17T10:14:59.753Z,17570
2018-03-17T10:15:29.722Z,17227
2018-03-17T10:15:59.737Z,15933
2018-03-17T10:16:29.915Z,16970
2018-03-17T10:16:59.798Z,16650
2018-03-17T10:17:31.194Z,16200
2018-03-17T10:17:59.865Z,15453
2018-03-17T10:18:29.895Z,15247
2018-03-17T10:18:59.922Z,15053
2018-03-17T10:19:29.954Z,15043
2018-03-17T10:20:00.160Z,14990
2018-03-17T10:20:30.042Z,15227
2018-03-17T10:21:00.053Z,15290
2018-03-17T10:21:30.073Z,15417
2018-03-17T10:22:00.162Z,15637
2018-03-17T10:22:30.180Z,15947
2018-03-17T10:23:00.192Z,15823
2018-03-17T10:23:30.241Z,15847
2018-03-17T10:24:01.340Z,15780
2018-03-17T10:24:30.281Z,15940
2018-03-17T10:25:00.957Z,16217
2018-03-17T10:25:30.374Z,16440
2018-03-17T10:26:01.184Z,15803
2018-03-17T10:26:30.396Z,15537
2018-03-17T10:27:01.001Z,15377
2018-03-17T10:27:30.502Z,15210
2018-03-17T10:28:00.664Z,14943
2018-03-17T10:28:30.537Z,14767
2018-03-17T10:29:00.827Z,14957
2018-03-17T10:29:30.629Z,15093
2018-03-17T10:30:00.781Z,14853
2018-03-17T10:30:30.676Z,14677
2018-03-17T10:31:00.736Z,14367
2018-03-17T10:31:30.697Z,14130
2018-03-17T10:32:01.407Z,13993
2018-03-17T10:32:30.763Z,13957
2018-03-17T10:33:01.069Z,13993
2018-03-17T10:33:30.851Z,14103
2018-03-17T10:34:01.133Z,14160
2018-03-17T10:35:00.971Z,14113
2018-03-17T10:35:30.956Z,14060
2018-03-17T10:36:01.063Z,14067
2018-03-17T10:36:31.002Z,14037
2018-03-17T10:37:01.039Z,14043
2018-03-17T10:37:31.065Z,14033
2018-03-17T10:38:01.082Z,14227
2018-03-17T10:38:31.127Z,14397
2018-03-17T10:39:01.162Z,14400
2018-03-17T10:39:31.209Z,14300
2018-03-17T10:40:01.262Z,14250
2018-03-17T10:40:31.296Z,14220
2018-03-17T10:41:01.279Z,14293
2018-03-17T10:41:31.354Z,14247
2018-03-17T10:42:01.350Z,14227
2018-03-17T10:42:31.405Z,14203
2018-03-17T10:43:01.396Z,14180
2018-03-17T10:43:31.471Z,13983
2018-03-17T10:44:01.449Z,13850
2018-03-17T10:44:31.513Z,13763
2018-03-17T10:45:01.545Z,13670
2018-03-17T10:45:31.620Z,13617
2018-03-17T10:46:01.584Z,13593
2018-03-17T10:46:31.685Z,13587
2018-03-17T10:47:01.682Z,13633
2018-03-17T10:47:31.668Z,13710
2018-03-17T10:48:01.708Z,13797
2018-03-17T10:48:31.793Z,13977
2018-03-17T10:49:01.838Z,14143
2018-03-17T10:49:31.863Z,14333
2018-03-17T10:50:01.893Z,14603
2018-03-17T10:50:31.884Z,14827
2018-03-17T10:51:01.897Z,14997
2018-03-17T10:51:31.999Z,15303
2018-03-17T10:52:02.255Z,15280
2018-03-17T10:52:32.055Z,15403
2018-03-17T10:53:02.081Z,15570
2018-03-17T10:53:32.098Z,15817
2018-03-17T10:54:02.065Z,15733
2018-03-17T10:54:32.196Z,15990
2018-03-17T10:55:02.270Z,16317
2018-03-17T10:55:32.182Z,16623
2018-03-17T10:56:02.240Z,16920
2018-03-17T10:56:32.249Z,17113
2018-03-17T10:57:02.308Z,17493
2018-03-17T10:57:32.361Z,17943
2018-03-17T10:58:02.378Z,18360
2018-03-17T10:58:32.358Z,18893
2018-03-17T10:59:02.395Z,19440
2018-03-17T10:59:32.442Z,20117
2018-03-17T11:00:02.528Z,20780
2018-03-17T11:00:32.535Z,21647
2018-03-17T11:01:02.515Z,20907
2018-03-17T11:01:32.535Z,20400
2018-03-17T11:02:02.578Z,20333
2018-03-17T11:02:32.600Z,19837
2018-03-17T11:03:02.637Z,19490
2018-03-17T11:03:32.733Z,19393
2018-03-17T11:04:02.707Z,19763
2018-03-17T11:04:32.717Z,20213
2018-03-17T11:05:02.821Z,20647
2018-03-17T11:05:32.816Z,21417
2018-03-17T11:06:02.879Z,23943
2018-03-17T11:06:32.852Z,24790
2018-03-17T11:07:02.861Z,24110
2018-03-17T11:07:32.891Z,22597
2018-03-17T11:08:02.926Z,23253
2018-03-17T11:08:32.961Z,23853
2018-03-17T11:09:02.996Z,24117
2018-03-17T11:09:33.019Z,22870
2018-03-17T11:10:03.052Z,20853
2018-03-17T11:10:33.134Z,20467
2018-03-17T11:11:03.126Z,21463
2018-03-17T11:11:33.238Z,24377
2018-03-17T11:12:03.218Z,25517
2018-03-17T11:12:33.242Z,25497
2018-03-17T11:13:03.284Z,23870
2018-03-17T11:13:33.335Z,23050
2018-03-17T11:14:03.305Z,23387
2018-03-17T11:14:33.398Z,22683
2018-03-17T11:15:03.458Z,21087
2018-03-17T11:15:33.431Z,20693
2018-03-17T11:16:03.452Z,21137
2018-03-17T11:16:33.538Z,20307
2018-03-17T11:17:03.502Z,19587
2018-03-17T11:17:33.555Z,19603
2018-03-17T11:18:03.563Z,19653
2018-03-17T11:18:33.643Z,19627
2018-03-17T11:19:03.646Z,19590
2018-03-17T11:19:33.658Z,19580
2018-03-17T11:20:03.700Z,19080
2018-03-17T11:20:33.699Z,18927
2018-03-17T11:21:03.806Z,19463
2018-03-17T11:21:33.771Z,20140
2018-03-17T11:22:03.825Z,20480
2018-03-17T11:22:33.824Z,20393
2018-03-17T11:23:03.892Z,21163
2018-03-17T11:23:33.900Z,22047
2018-03-17T11:24:03.918Z,21127
2018-03-17T11:24:33.954Z,21480
2018-03-17T11:25:04.014Z,20957
2018-03-17T11:25:34.016Z,17613
2018-03-17T11:26:04.043Z,15273
2018-03-17T11:26:34.106Z,14460
2018-03-17T11:27:04.101Z,15773
2018-03-17T11:27:34.180Z,19743
2018-03-17T11:28:04.184Z,21150
2018-03-17T11:28:34.247Z,20457
2018-03-17T11:29:04.248Z,20250
2018-03-17T11:29:34.265Z,16523
2018-03-17T11:30:04.360Z,14950
2018-03-17T11:30:34.385Z,15393
2018-03-17T11:31:04.381Z,15953
2018-03-17T11:31:34.441Z,14853
2018-03-17T11:32:04.408Z,14220
2018-03-17T11:32:34.493Z,14190
2018-03-17T11:33:04.501Z,14493
2018-03-17T11:33:34.542Z,15000
2018-03-17T11:34:04.561Z,15650
2018-03-17T11:34:34.627Z,16557
2018-03-17T11:35:04.649Z,16233
2018-03-17T11:35:34.677Z,16077
2018-03-17T11:36:04.698Z,16473
2018-03-17T11:36:34.718Z,17110
2018-03-17T11:41:35.108Z,19787
2018-03-17T11:42:05.152Z,19497
2018-03-17T11:42:35.132Z,18553
2018-03-17T11:43:05.194Z,17730
2018-03-17T11:43:35.193Z,17727
2018-03-17T11:44:05.190Z,18053
2018-03-17T11:44:35.200Z,18013
2018-03-17T11:45:05.252Z,17870
2018-03-17T11:45:35.262Z,17637
2018-03-17T11:46:05.331Z,17550
2018-03-17T11:46:35.361Z,17657
2018-03-17T11:47:05.406Z,17643
2018-03-17T11:47:35.401Z,17663
2018-03-17T11:48:05.397Z,17847
2018-03-17T11:48:35.466Z,18133
2018-03-17T11:49:05.503Z,18440
2018-03-17T11:49:35.538Z,18257
2018-03-17T11:50:05.591Z,17790
2018-03-17T11:50:35.611Z,17460
2018-03-17T11:51:05.591Z,17290
2018-03-17T11:51:35.615Z,17117
2018-03-17T11:52:05.665Z,16740
2018-03-17T11:52:35.738Z,16297
2018-03-17T11:53:05.718Z,16013
2018-03-17T11:53:35.734Z,15757
2018-03-17T11:54:05.778Z,15490
2018-03-17T11:54:35.798Z,15333
2018-03-17T11:55:05.832Z,15267
2018-03-17T11:55:35.899Z,15053
2018-03-17T11:56:05.908Z,14610
2018-03-17T11:56:35.940Z,14110
2018-03-17T11:57:05.985Z,13800
2018-03-17T11:57:36.046Z,13620
2018-03-17T11:58:06.051Z,13473
2018-03-17T11:58:36.101Z,13347
2018-03-17T11:59:06.110Z,13250